createdAt,value
2019-02-05T00:01:09.837Z,4.71
2019-02-05T00:03:58.076Z,4.44
2019-02-05T00:06:45.398Z,3.93
2019-02-05T00:09:32.925Z,3.40
2019-02-05T00:12:20.657Z,3.29
2019-02-05T00:15:08.293Z,3.08
2019-02-05T00:17:55.507Z,3.27
2019-02-05T00:20:43.510Z,3.18
2019-02-05T00:23:30.657Z,3.35
2019-02-05T00:26:18.493Z,3.58
2019-02-05T00:29:05.916Z,3.68
2019-02-05T00:31:54.056Z,3.81
2019-02-05T00:34:41.070Z,4.23
2019-02-05T00:37:28.700Z,4.09
2019-02-05T00:40:16.739Z,3.86
2019-02-05T00:43:04.063Z,4.08
2019-02-05T00:45:51.597Z,3.98
2019-02-05T00:48:39.009Z,3.43
2019-02-05T00:51:26.638Z,4.02
2019-02-05T00:54:18.773Z,4.25
2019-02-05T00:57:06.392Z,4.20
2019-02-05T00:59:53.644Z,4.19
2019-02-05T01:02:41.045Z,4.27
2019-02-05T01:05:28.572Z,4.17
2019-02-05T01:08:15.998Z,3.82
2019-02-05T01:11:03.635Z,3.88
2019-02-05T01:13:51.149Z,3.84
2019-02-05T01:16:39.086Z,3.85
2019-02-05T01:19:26.820Z,3.86
2019-02-05T01:22:13.731Z,3.76
2019-02-05T01:25:00.950Z,3.26
2019-02-05T01:27:48.770Z,3.38
2019-02-05T01:30:36.220Z,3.36
2019-02-05T01:33:23.838Z,3.42
2019-02-05T01:36:10.973Z,3.44
2019-02-05T01:38:58.374Z,3.43
2019-02-05T01:41:46.210Z,3.48
2019-02-05T01:44:33.637Z,3.26
2019-02-05T01:47:21.263Z,3.14
2019-02-05T01:50:11.213Z,3.00
2019-02-05T01:52:58.572Z,3.05
2019-02-05T01:55:46.401Z,2.85
2019-02-05T01:58:33.622Z,3.24
2019-02-05T02:01:21.559Z,3.65
2019-02-05T02:04:08.986Z,3.75
2019-02-05T02:06:56.203Z,3.82
2019-02-05T02:09:43.530Z,2.92
2019-02-05T02:12:30.749Z,3.34
2019-02-05T02:15:18.757Z,3.57
2019-02-05T02:18:06.473Z,3.27
2019-02-05T02:20:53.628Z,3.68
2019-02-05T02:23:41.155Z,3.83
2019-02-05T02:26:28.889Z,3.80
2019-02-05T02:29:16.106Z,3.68
2019-02-05T02:32:03.335Z,3.58
2019-02-05T02:34:50.651Z,3.60
2019-02-05T02:37:38.174Z,4.04
2019-02-05T02:40:25.902Z,3.91
2019-02-05T02:43:13.335Z,3.78
2019-02-05T02:46:01.265Z,3.04
2019-02-05T02:48:48.483Z,3.01
2019-02-05T02:51:36.317Z,2.79
2019-02-05T02:54:23.541Z,3.18
2019-02-05T02:57:11.575Z,3.37
2019-02-05T02:59:59.313Z,3.35
2019-02-05T03:02:47.348Z,3.41
2019-02-05T03:05:34.973Z,3.44
2019-02-05T03:08:22.705Z,3.25
2019-02-05T03:11:09.823Z,3.11
2019-02-05T03:13:56.732Z,3.43
2019-02-05T03:16:44.360Z,3.34
2019-02-05T03:19:31.686Z,3.26
2019-02-05T03:22:18.696Z,3.13
2019-02-05T03:25:09.713Z,3.46
2019-02-05T03:27:57.339Z,3.17
2019-02-05T03:30:44.668Z,2.79
2019-02-05T03:33:32.191Z,3.04
2019-02-05T03:36:19.402Z,2.73
2019-02-05T03:39:07.644Z,2.57
2019-02-05T03:41:56.196Z,2.52
2019-02-05T03:44:43.649Z,2.85
2019-02-05T03:47:31.253Z,3.07
2019-02-05T03:50:18.774Z,3.10
2019-02-05T03:53:30.263Z,3.18
2019-02-05T03:56:54.345Z,3.26
2019-02-05T03:59:56.928Z,3.38
2019-02-05T04:02:50.299Z,3.41
2019-02-05T04:06:01.775Z,3.49
2019-02-05T04:09:05.490Z,3.47
2019-02-05T04:12:30.897Z,3.26
2019-02-05T04:15:33.682Z,3.19
2019-02-05T04:18:33.494Z,2.97
2019-02-05T04:21:26.548Z,3.30
2019-02-05T04:24:36.408Z,3.34
2019-02-05T04:27:45.021Z,3.72
2019-02-05T04:30:40.381Z,3.56
2019-02-05T04:33:39.779Z,3.54
2019-02-05T04:36:30.239Z,3.74
2019-02-05T04:39:39.975Z,3.70
2019-02-05T04:42:42.664Z,3.86
2019-02-05T04:45:42.170Z,3.61
2019-02-05T04:48:53.971Z,3.72
2019-02-05T04:51:56.237Z,4.07
2019-02-05T04:54:55.638Z,4.28
2019-02-05T04:58:01.781Z,4.37
2019-02-05T05:01:07.143Z,4.51
2019-02-05T05:04:20.277Z,4.50
2019-02-05T05:07:10.562Z,4.42
2019-02-05T05:09:58.883Z,4.41
2019-02-05T05:12:45.926Z,4.24
2019-02-05T05:15:33.348Z,4.35
2019-02-05T05:18:20.675Z,4.41
2019-02-05T05:21:07.922Z,4.34
2019-02-05T05:23:56.745Z,4.15
2019-02-05T05:26:44.930Z,4.24
2019-02-05T05:29:33.193Z,4.23
2019-02-05T05:32:21.065Z,4.39
2019-02-05T05:35:10.026Z,4.28
2019-02-05T05:37:57.221Z,3.89
2019-02-05T05:40:44.994Z,4.14
2019-02-05T05:43:32.402Z,4.08
2019-02-05T05:46:19.516Z,4.13
2019-02-05T05:49:06.939Z,3.99
2019-02-05T05:51:54.778Z,3.95
2019-02-05T05:54:43.323Z,4.32
2019-02-05T05:57:30.652Z,4.28
2019-02-05T06:00:19.938Z,4.11
2019-02-05T06:03:07.340Z,3.60
2019-02-05T06:05:54.868Z,2.71
2019-02-05T06:08:42.695Z,3.88
2019-02-05T06:11:30.017Z,3.87
2019-02-05T06:14:17.676Z,3.58
2019-02-05T06:17:04.970Z,3.41
2019-02-05T06:19:52.521Z,3.66
2019-02-05T06:22:40.552Z,3.79
2019-02-05T06:25:28.274Z,3.82
2019-02-05T06:28:15.692Z,3.81
2019-02-05T06:31:03.214Z,3.43
2019-02-05T06:33:51.047Z,3.22
2019-02-05T06:36:38.478Z,3.55
2019-02-05T06:39:25.794Z,3.80
2019-02-05T06:42:13.012Z,3.81
2019-02-05T06:44:59.932Z,3.75
2019-02-05T06:47:47.447Z,3.89
2019-02-05T06:50:35.091Z,3.57
2019-02-05T06:53:22.563Z,3.36
2019-02-05T06:56:09.622Z,3.30
2019-02-05T06:58:57.659Z,3.45
2019-02-05T07:01:45.394Z,3.27
2019-02-05T07:04:33.327Z,3.30
2019-02-05T07:07:20.648Z,3.46
2019-02-05T07:10:24.906Z,3.28
2019-02-05T07:13:13.823Z,3.48
2019-02-05T07:16:02.483Z,3.04
2019-02-05T07:18:50.106Z,2.80
2019-02-05T07:21:37.632Z,3.43
2019-02-05T07:24:25.060Z,3.27
2019-02-05T07:27:12.587Z,3.37
2019-02-05T07:30:00.421Z,3.51
2019-02-05T07:32:47.947Z,3.53
2019-02-05T07:35:35.168Z,2.23
2019-02-05T07:38:22.791Z,3.49
2019-02-05T07:41:10.214Z,3.91
2019-02-05T07:43:57.535Z,4.04
2019-02-05T07:46:45.268Z,4.26
2019-02-05T07:49:32.282Z,4.15
2019-02-05T07:52:19.916Z,4.07
2019-02-05T07:55:10.189Z,4.02
2019-02-05T07:57:57.936Z,4.25
2019-02-05T08:00:45.568Z,4.08
2019-02-05T08:03:32.987Z,4.03
2019-02-05T08:06:20.626Z,4.35
2019-02-05T08:09:09.370Z,4.41
2019-02-05T08:11:57.104Z,4.43
2019-02-05T08:14:44.743Z,4.35
2019-02-05T08:17:31.848Z,4.01
2019-02-05T08:20:20.399Z,4.20
2019-02-05T08:23:08.034Z,4.50
2019-02-05T08:25:55.658Z,4.11
2019-02-05T08:28:42.989Z,4.39
2019-02-05T08:31:30.094Z,4.09
2019-02-05T08:34:17.517Z,4.24
2019-02-05T08:37:05.146Z,4.38
2019-02-05T08:39:53.183Z,4.46
2019-02-05T08:42:41.123Z,4.34
2019-02-05T08:45:37.609Z,4.21
2019-02-05T08:48:24.775Z,4.39
2019-02-05T08:51:12.095Z,4.66
2019-02-05T08:53:59.730Z,4.41
2019-02-05T08:56:47.272Z,4.75
2019-02-05T08:59:34.969Z,4.84
2019-02-05T09:02:22.306Z,4.79
2019-02-05T09:05:10.114Z,4.88
2019-02-05T09:07:57.974Z,4.86
2019-02-05T09:10:45.498Z,4.89
2019-02-05T09:13:33.435Z,4.90
2019-02-05T09:16:20.861Z,4.68
2019-02-05T09:19:08.486Z,4.98
2019-02-05T09:21:56.114Z,5.10
2019-02-05T09:24:43.552Z,5.35
2019-02-05T09:27:31.373Z,5.39
2019-02-05T09:30:20.943Z,5.06
2019-02-05T09:33:11.907Z,5.21
2019-02-05T09:35:59.087Z,5.16
2019-02-05T09:38:46.804Z,5.42
2019-02-05T09:41:34.433Z,5.67
2019-02-05T09:44:22.268Z,5.83
2019-02-05T09:47:09.402Z,5.91
2019-02-05T09:49:57.333Z,5.79
2019-02-05T09:52:44.436Z,5.86
2019-02-05T09:55:31.765Z,5.67
2019-02-05T09:58:19.080Z,5.85
2019-02-05T10:01:07.264Z,5.90
2019-02-05T10:03:54.438Z,6.09
2019-02-05T10:06:42.278Z,5.95
2019-02-05T10:09:29.701Z,6.13
2019-02-05T10:12:16.811Z,5.95
2019-02-05T10:15:06.907Z,5.78
2019-02-05T10:17:54.217Z,5.95
2019-02-05T10:20:42.362Z,6.20
2019-02-05T10:23:29.583Z,5.53
2019-02-05T10:26:17.211Z,5.47
2019-02-05T10:29:04.939Z,5.59
2019-02-05T10:31:52.574Z,5.84
2019-02-05T10:34:40.199Z,5.93
2019-02-05T10:37:27.621Z,5.93
2019-02-05T10:40:16.781Z,5.91
2019-02-05T10:43:04.980Z,6.13
2019-02-05T10:45:52.353Z,5.69
2019-02-05T10:48:39.781Z,5.61
2019-02-05T10:51:27.507Z,5.87
2019-02-05T10:54:14.933Z,5.91
2019-02-05T10:57:02.263Z,6.14
2019-02-05T10:59:49.573Z,5.82
2019-02-05T11:02:37.306Z,6.01
2019-02-05T11:05:26.680Z,6.11
2019-02-05T11:08:13.896Z,6.24
2019-02-05T11:11:01.505Z,6.28
2019-02-05T11:13:49.252Z,6.12
2019-02-05T11:16:36.885Z,6.11
2019-02-05T11:19:23.795Z,6.31
2019-02-05T11:22:11.217Z,6.51
2019-02-05T11:24:58.949Z,6.42
2019-02-05T11:27:46.991Z,6.17
2019-02-05T11:30:43.019Z,6.25
2019-02-05T11:33:30.849Z,6.21
2019-02-05T11:36:18.577Z,6.02
2019-02-05T11:39:09.182Z,6.17
2019-02-05T11:41:56.601Z,6.06
2019-02-05T11:44:45.252Z,6.03
2019-02-05T11:47:32.269Z,6.37
2019-02-05T11:50:20.101Z,6.60
2019-02-05T11:53:07.523Z,6.60
2019-02-05T11:55:54.956Z,6.53
2019-02-05T11:58:42.580Z,6.36
2019-02-05T12:01:38.515Z,6.54
2019-02-05T12:04:19.882Z,6.61
2019-02-05T12:07:08.341Z,6.60
2019-02-05T12:09:55.757Z,6.81
2019-02-05T12:12:43.593Z,6.97
2019-02-05T12:15:30.806Z,6.90
2019-02-05T12:18:18.399Z,6.81
2019-02-05T12:21:05.759Z,6.63
2019-02-05T12:23:53.088Z,6.63
2019-02-05T12:26:40.403Z,6.87
2019-02-05T12:29:27.442Z,6.91
2019-02-05T12:32:15.251Z,6.91
2019-02-05T12:35:02.878Z,7.13
2019-02-05T12:37:50.307Z,7.21
2019-02-05T12:40:38.242Z,7.14
2019-02-05T12:43:25.766Z,6.73
2019-02-05T12:46:13.600Z,6.73
2019-02-05T12:49:00.822Z,6.86
2019-02-05T12:51:49.469Z,7.02
2019-02-05T12:54:38.528Z,7.19
2019-02-05T12:57:25.869Z,7.15
2019-02-05T13:00:16.557Z,6.70
2019-02-05T13:03:04.657Z,6.62
2019-02-05T13:05:51.988Z,6.51
2019-02-05T13:08:39.339Z,6.84
2019-02-05T13:11:27.074Z,6.64
2019-02-05T13:14:14.494Z,6.74
2019-02-05T13:17:01.922Z,7.05
2019-02-05T13:19:49.956Z,7.37
2019-02-05T13:22:37.693Z,7.22
2019-02-05T13:25:27.174Z,7.14
2019-02-05T13:28:15.722Z,7.42
2019-02-05T13:31:08.236Z,7.45
2019-02-05T13:33:53.430Z,7.49
2019-02-05T13:36:40.543Z,7.74
2019-02-05T13:39:27.645Z,7.83
2019-02-05T13:42:15.392Z,7.71
2019-02-05T13:45:03.535Z,7.77
2019-02-05T13:47:52.264Z,7.51
2019-02-05T13:50:39.710Z,7.45
2019-02-05T13:53:27.133Z,7.46
2019-02-05T13:56:14.157Z,7.69
2019-02-05T13:59:01.367Z,7.70
2019-02-05T14:01:48.909Z,7.68
2019-02-05T14:04:37.036Z,7.89
2019-02-05T14:07:24.254Z,7.90
2019-02-05T14:10:14.714Z,7.85
2019-02-05T14:13:01.763Z,7.96
2019-02-05T14:15:51.017Z,8.00
2019-02-05T14:18:37.943Z,7.94
2019-02-05T14:21:27.765Z,7.95
2019-02-05T14:24:14.956Z,7.66
2019-02-05T14:27:02.368Z,7.56
2019-02-05T14:29:50.203Z,7.73
2019-02-05T14:32:37.626Z,7.53
2019-02-05T14:35:25.362Z,7.46
2019-02-05T14:38:13.596Z,7.37
2019-02-05T14:41:00.930Z,7.54
2019-02-05T14:43:48.856Z,7.50
2019-02-05T14:46:36.076Z,7.50
2019-02-05T14:49:23.908Z,7.08
2019-02-05T14:52:11.231Z,7.16
2019-02-05T14:54:59.072Z,7.27
2019-02-05T14:57:46.487Z,7.34
2019-02-05T15:00:35.298Z,7.54
2019-02-05T15:03:23.076Z,7.70
2019-02-05T15:06:10.709Z,7.73
2019-02-05T15:08:58.543Z,7.61
2019-02-05T15:11:47.303Z,7.55
2019-02-05T15:14:35.026Z,7.62
2019-02-05T15:17:22.861Z,7.27
2019-02-05T15:20:19.704Z,7.47
2019-02-05T15:23:08.274Z,7.58
2019-02-05T15:25:55.783Z,7.60
2019-02-05T15:28:43.821Z,7.62
2019-02-05T15:31:31.247Z,7.62
2019-02-05T15:34:20.102Z,7.55
2019-02-05T15:37:07.530Z,7.54
2019-02-05T15:39:55.357Z,7.56
2019-02-05T15:42:42.679Z,7.52
2019-02-05T15:45:30.107Z,7.43
2019-02-05T15:48:17.633Z,7.39
2019-02-05T15:51:05.459Z,7.32
2019-02-05T15:53:52.990Z,7.16
2019-02-05T15:56:40.394Z,7.12
2019-02-05T15:59:28.350Z,7.02
2019-02-05T16:02:15.777Z,6.91
2019-02-05T16:05:03.097Z,6.75
2019-02-05T16:07:50.623Z,6.56
2019-02-05T16:10:38.558Z,6.51
2019-02-05T16:13:25.983Z,6.29
2019-02-05T16:16:13.407Z,5.98
2019-02-05T16:19:01.345Z,6.14
2019-02-05T16:21:49.039Z,5.93
2019-02-05T16:24:36.397Z,5.81
2019-02-05T16:27:24.142Z,5.85
2019-02-05T16:30:14.526Z,5.80
2019-02-05T16:33:02.356Z,5.65
2019-02-05T16:35:51.579Z,5.55
2019-02-05T16:38:39.046Z,5.40
2019-02-05T16:41:26.470Z,5.53
2019-02-05T16:44:14.202Z,5.31
2019-02-05T16:47:01.733Z,5.07
2019-02-05T16:49:49.048Z,5.19
2019-02-05T16:52:36.489Z,5.26
2019-02-05T16:55:23.600Z,5.05
2019-02-05T16:58:11.326Z,4.85
2019-02-05T17:01:00.652Z,5.21
2019-02-05T17:03:48.096Z,5.30
2019-02-05T17:06:35.639Z,4.69
2019-02-05T17:09:23.080Z,5.04
2019-02-05T17:12:10.908Z,5.20
2019-02-05T17:14:58.534Z,5.33
2019-02-05T17:17:47.855Z,5.36
2019-02-05T17:20:36.571Z,5.27
2019-02-05T17:23:24.178Z,5.33
2019-02-05T17:26:11.295Z,5.31
2019-02-05T17:28:58.930Z,5.37
2019-02-05T17:31:46.043Z,5.32
2019-02-05T17:34:33.491Z,5.13
2019-02-05T17:37:21.100Z,5.17
2019-02-05T17:40:11.396Z,4.88
2019-02-05T17:42:59.241Z,4.69
2019-02-05T17:45:47.053Z,4.96
2019-02-05T17:48:34.782Z,4.72
2019-02-05T17:51:23.717Z,4.63
2019-02-05T17:54:11.185Z,4.32
2019-02-05T17:56:59.043Z,4.43
2019-02-05T17:59:46.530Z,4.71
2019-02-05T18:02:36.001Z,4.62
2019-02-05T18:05:25.016Z,4.78
2019-02-05T18:08:13.976Z,4.68
2019-02-05T18:11:01.688Z,4.55
2019-02-05T18:13:48.872Z,4.38
2019-02-05T18:16:37.218Z,4.21
2019-02-05T18:19:24.441Z,4.07
2019-02-05T18:22:12.779Z,3.48
2019-02-05T18:25:00.479Z,3.70
2019-02-05T18:27:48.655Z,3.80
2019-02-05T18:30:42.425Z,3.58
2019-02-05T18:33:30.260Z,3.96
2019-02-05T18:36:22.602Z,3.97
2019-02-05T18:39:10.537Z,3.89
2019-02-05T18:41:58.061Z,3.75
2019-02-05T18:44:48.089Z,4.09
2019-02-05T18:47:34.343Z,4.05
2019-02-05T18:50:27.054Z,4.25
2019-02-05T18:53:14.925Z,4.20
2019-02-05T18:56:02.555Z,4.07
2019-02-05T18:58:50.385Z,4.20
2019-02-05T19:01:37.914Z,4.17
2019-02-05T19:04:25.621Z,4.45
2019-02-05T19:07:14.095Z,4.34
2019-02-05T19:10:01.318Z,4.15
2019-02-05T19:12:48.734Z,4.47
2019-02-05T19:15:38.180Z,4.49
2019-02-05T19:18:25.528Z,4.62
2019-02-05T19:21:12.963Z,4.48
2019-02-05T19:24:02.322Z,4.72
2019-02-05T19:26:49.643Z,4.62
2019-02-05T19:29:37.069Z,4.59
2019-02-05T19:32:25.078Z,4.57
2019-02-05T19:35:12.733Z,4.48
2019-02-05T19:38:00.160Z,4.61
2019-02-05T19:40:57.181Z,4.57
2019-02-05T19:43:37.467Z,4.43
2019-02-05T19:46:41.518Z,4.63
2019-02-05T19:49:29.722Z,4.60
2019-02-05T19:52:17.249Z,4.49
2019-02-05T19:55:07.435Z,4.34
2019-02-05T19:57:55.067Z,4.33
2019-02-05T20:00:42.489Z,4.49
2019-02-05T20:03:38.331Z,4.62
2019-02-05T20:06:19.904Z,4.63
2019-02-05T20:09:10.393Z,4.76
2019-02-05T20:11:57.590Z,4.62
2019-02-05T20:14:45.036Z,4.75
2019-02-05T20:17:32.257Z,4.65
2019-02-05T20:20:21.013Z,4.47
2019-02-05T20:23:08.747Z,4.61
2019-02-05T20:25:56.063Z,4.64
2019-02-05T20:28:43.591Z,4.43
2019-02-05T20:31:30.707Z,4.45
2019-02-05T20:34:18.254Z,4.41
2019-02-05T20:37:06.467Z,4.00
2019-02-05T20:39:53.606Z,4.19
2019-02-05T20:42:41.122Z,4.39
2019-02-05T20:45:28.424Z,4.35
2019-02-05T20:48:15.972Z,4.20
2019-02-05T20:51:03.499Z,4.27
2019-02-05T20:53:51.124Z,4.22
2019-02-05T20:56:38.550Z,4.41
2019-02-05T20:59:26.096Z,4.56
2019-02-05T21:02:13.087Z,4.62
2019-02-05T21:05:00.675Z,4.63
2019-02-05T21:07:49.387Z,4.45
2019-02-05T21:10:37.099Z,4.42
2019-02-05T21:13:25.547Z,4.46
2019-02-05T21:16:12.663Z,4.55
2019-02-05T21:19:00.398Z,4.45
2019-02-05T21:21:47.615Z,4.49
2019-02-05T21:24:34.951Z,4.53
2019-02-05T21:27:22.363Z,4.57
2019-02-05T21:30:13.558Z,4.62
2019-02-05T21:33:00.899Z,4.56
2019-02-05T21:35:48.233Z,4.51
2019-02-05T21:38:35.129Z,4.51
2019-02-05T21:41:22.575Z,4.50
2019-02-05T21:44:09.977Z,4.53
2019-02-05T21:46:57.711Z,4.47
2019-02-05T21:49:45.032Z,4.37
2019-02-05T21:52:32.250Z,4.28
2019-02-05T21:55:21.115Z,4.29
2019-02-05T21:58:08.631Z,4.27
2019-02-05T22:00:56.056Z,4.28
2019-02-05T22:03:44.048Z,4.20
2019-02-05T22:06:31.648Z,4.19
2019-02-05T22:09:18.851Z,4.19
2019-02-05T22:12:06.906Z,4.11
2019-02-05T22:14:54.100Z,3.90
2019-02-05T22:17:41.724Z,3.82
2019-02-05T22:20:30.315Z,3.81
2019-02-05T22:23:17.810Z,3.65
2019-02-05T22:26:05.422Z,3.71
2019-02-05T22:28:52.755Z,3.88
2019-02-05T22:31:40.179Z,3.95
2019-02-05T22:34:38.964Z,3.99
2019-02-05T22:37:16.767Z,4.02
2019-02-05T22:40:07.065Z,4.06
2019-02-05T22:42:55.098Z,4.06
2019-02-05T22:45:42.523Z,3.82
2019-02-05T22:48:30.150Z,3.76
2019-02-05T22:51:17.559Z,3.56
2019-02-05T22:54:05.507Z,3.52
2019-02-05T22:56:53.257Z,3.53
2019-02-05T22:59:41.897Z,3.61
2019-02-05T23:02:29.429Z,3.65
2019-02-05T23:05:46.131Z,3.61
2019-02-05T23:08:34.066Z,3.54
2019-02-05T23:11:42.890Z,3.39
2019-02-05T23:14:30.519Z,3.35
2019-02-05T23:17:18.353Z,3.24
2019-02-05T23:20:09.055Z,3.21
2019-02-05T23:22:57.278Z,3.26
2019-02-05T23:25:44.926Z,3.18
2019-02-05T23:28:32.257Z,3.14
2019-02-05T23:31:19.683Z,3.11
2019-02-05T23:34:07.309Z,3.12
2019-02-05T23:36:54.933Z,3.09
2019-02-05T23:39:42.353Z,3.03
2019-02-05T23:42:29.779Z,2.99
2019-02-05T23:45:17.918Z,2.93
2019-02-05T23:48:05.753Z,2.90
2019-02-05T23:50:53.482Z,2.92
2019-02-05T23:53:40.911Z,2.89
2019-02-05T23:56:29.088Z,2.84
2019-02-05T23:59:16.703Z,2.80
